sensor_id;sensor_type;location;lat;lon;timestamp;P1;durP1;ratioP1;P2;durP2;ratioP2
61702;SDS011;47622;47.726;3.298;2022-08-25T00:01:36;3.28;;;2.63;;
61702;SDS011;47622;47.726;3.298;2022-08-25T00:04:06;3.28;;;2.58;;
61702;SDS011;47622;47.726;3.298;2022-08-25T00:06:35;5.45;;;2.90;;
61702;SDS011;47622;47.726;3.298;2022-08-25T00:09:02;3.13;;;2.50;;
61702;SDS011;47622;47.726;3.298;2022-08-25T00:11:30;3.10;;;2.45;;
61702;SDS011;47622;47.726;3.298;2022-08-25T00:14:02;2.97;;;2.63;;
61702;SDS011;47622;47.726;3.298;2022-08-25T00:16:31;4.50;;;2.83;;
61702;SDS011;47622;47.726;3.298;2022-08-25T00:18:58;2.70;;;2.50;;
61702;SDS011;47622;47.726;3.298;2022-08-25T00:21:28;2.60;;;2.40;;
61702;SDS011;47622;47.726;3.298;2022-08-25T00:23:56;4.20;;;2.50;;
61702;SDS011;47622;47.726;3.298;2022-08-25T00:26:22;3.40;;;2.53;;
61702;SDS011;47622;47.726;3.298;2022-08-25T00:31:15;3.72;;;2.50;;
61702;SDS011;47622;47.726;3.298;2022-08-25T00:33:45;4.43;;;2.50;;
61702;SDS011;47622;47.726;3.298;2022-08-25T00:36:12;2.95;;;2.63;;
61702;SDS011;47622;47.726;3.298;2022-08-25T00:38:39;4.13;;;2.75;;
61702;SDS011;47622;47.726;3.298;2022-08-25T00:41:06;3.88;;;3.03;;
61702;SDS011;47622;47.726;3.298;2022-08-25T00:49:01;3.50;;;3.10;;
61702;SDS011;47622;47.726;3.298;2022-08-25T00:56:27;4.30;;;2.97;;
61702;SDS011;47622;47.726;3.298;2022-08-25T00:58:55;3.10;;;2.80;;
61702;SDS011;47622;47.726;3.298;2022-08-25T01:01:24;3.13;;;2.80;;
61702;SDS011;47622;47.726;3.298;2022-08-25T01:03:52;3.92;;;2.90;;
61702;SDS011;47622;47.726;3.298;2022-08-25T01:06:18;4.80;;;3.08;;
61702;SDS011;47622;47.726;3.298;2022-08-25T01:08:44;3.15;;;2.45;;
61702;SDS011;47622;47.726;3.298;2022-08-25T01:11:10;3.75;;;2.60;;
61702;SDS011;47622;47.726;3.298;2022-08-25T01:13:41;3.13;;;2.80;;
61702;SDS011;47622;47.726;3.298;2022-08-25T01:18:43;4.10;;;2.70;;
61702;SDS011;47622;47.726;3.298;2022-08-25T01:21:19;5.13;;;2.70;;
61702;SDS011;47622;47.726;3.298;2022-08-25T01:23:47;3.08;;;2.70;;
61702;SDS011;47622;47.726;3.298;2022-08-25T01:26:21;3.15;;;2.50;;
61702;SDS011;47622;47.726;3.298;2022-08-25T01:28:49;3.97;;;2.60;;
61702;SDS011;47622;47.726;3.298;2022-08-25T01:31:36;5.13;;;2.90;;
61702;SDS011;47622;47.726;3.298;2022-08-25T01:36:30;3.50;;;2.90;;
61702;SDS011;47622;47.726;3.298;2022-08-25T01:38:56;5.60;;;2.75;;
61702;SDS011;47622;47.726;3.298;2022-08-25T01:43:54;7.03;;;3.05;;
61702;SDS011;47622;47.726;3.298;2022-08-25T01:46:20;4.53;;;2.75;;
61702;SDS011;47622;47.726;3.298;2022-08-25T01:48:46;4.63;;;2.95;;
61702;SDS011;47622;47.726;3.298;2022-08-25T01:51:16;4.13;;;2.88;;
61702;SDS011;47622;47.726;3.298;2022-08-25T01:56:12;5.18;;;3.10;;
61702;SDS011;47622;47.726;3.298;2022-08-25T01:58:41;3.67;;;2.90;;
61702;SDS011;47622;47.726;3.298;2022-08-25T02:01:13;3.30;;;3.00;;
61702;SDS011;47622;47.726;3.298;2022-08-25T02:03:42;3.67;;;2.80;;
61702;SDS011;47622;47.726;3.298;2022-08-25T02:06:13;3.53;;;3.00;;
61702;SDS011;47622;47.726;3.298;2022-08-25T02:08:41;6.10;;;3.30;;
61702;SDS011;47622;47.726;3.298;2022-08-25T02:11:13;4.68;;;3.22;;
61702;SDS011;47622;47.726;3.298;2022-08-25T02:13:40;3.20;;;2.90;;
61702;SDS011;47622;47.726;3.298;2022-08-25T02:16:07;3.20;;;2.90;;
61702;SDS011;47622;47.726;3.298;2022-08-25T02:18:34;3.35;;;2.88;;
61702;SDS011;47622;47.726;3.298;2022-08-25T02:21:01;4.10;;;3.05;;
61702;SDS011;47622;47.726;3.298;2022-08-25T02:23:27;4.82;;;2.97;;
61702;SDS011;47622;47.726;3.298;2022-08-25T02:28:21;3.10;;;2.80;;
61702;SDS011;47622;47.726;3.298;2022-08-25T02:33:13;3.33;;;3.05;;
61702;SDS011;47622;47.726;3.298;2022-08-25T02:35:39;4.85;;;3.00;;
61702;SDS011;47622;47.726;3.298;2022-08-25T02:38:04;4.13;;;3.17;;
61702;SDS011;47622;47.726;3.298;2022-08-25T02:40:31;4.25;;;3.28;;
61702;SDS011;47622;47.726;3.298;2022-08-25T02:42:59;4.32;;;3.10;;
61702;SDS011;47622;47.726;3.298;2022-08-25T02:45:25;4.05;;;3.15;;
61702;SDS011;47622;47.726;3.298;2022-08-25T02:47:51;3.67;;;3.17;;
61702;SDS011;47622;47.726;3.298;2022-08-25T02:50:17;4.55;;;3.05;;
61702;SDS011;47622;47.726;3.298;2022-08-25T02:52:46;4.13;;;3.00;;
61702;SDS011;47622;47.726;3.298;2022-08-25T02:55:16;3.58;;;3.10;;
61702;SDS011;47622;47.726;3.298;2022-08-25T02:57:42;6.93;;;3.50;;
61702;SDS011;47622;47.726;3.298;2022-08-25T03:00:10;4.47;;;3.40;;
61702;SDS011;47622;47.726;3.298;2022-08-25T03:02:38;3.40;;;3.10;;
61702;SDS011;47622;47.726;3.298;2022-08-25T03:05:05;4.20;;;3.17;;
61702;SDS011;47622;47.726;3.298;2022-08-25T03:07:33;3.33;;;3.00;;
61702;SDS011;47622;47.726;3.298;2022-08-25T03:10:03;4.45;;;3.10;;
61702;SDS011;47622;47.726;3.298;2022-08-25T03:12:30;4.20;;;3.45;;
61702;SDS011;47622;47.726;3.298;2022-08-25T03:14:57;7.50;;;3.20;;
61702;SDS011;47622;47.726;3.298;2022-08-25T03:17:23;3.60;;;3.08;;
61702;SDS011;47622;47.726;3.298;2022-08-25T03:19:49;3.40;;;3.10;;
61702;SDS011;47622;47.726;3.298;2022-08-25T03:22:15;4.28;;;3.20;;
61702;SDS011;47622;47.726;3.298;2022-08-25T03:24:41;5.95;;;3.33;;
61702;SDS011;47622;47.726;3.298;2022-08-25T03:27:07;3.90;;;3.60;;
61702;SDS011;47622;47.726;3.298;2022-08-25T03:29:33;3.13;;;2.83;;
61702;SDS011;47622;47.726;3.298;2022-08-25T03:31:59;6.05;;;3.17;;
61702;SDS011;47622;47.726;3.298;2022-08-25T03:36:53;3.33;;;3.03;;
61702;SDS011;47622;47.726;3.298;2022-08-25T03:39:20;6.30;;;3.40;;
61702;SDS011;47622;47.726;3.298;2022-08-25T03:41:48;3.80;;;3.28;;
61702;SDS011;47622;47.726;3.298;2022-08-25T03:44:16;5.13;;;3.25;;
61702;SDS011;47622;47.726;3.298;2022-08-25T03:46:44;3.90;;;2.90;;
61702;SDS011;47622;47.726;3.298;2022-08-25T03:49:14;4.88;;;3.50;;
61702;SDS011;47622;47.726;3.298;2022-08-25T03:51:43;3.85;;;3.42;;
61702;SDS011;47622;47.726;3.298;2022-08-25T03:54:12;5.03;;;3.50;;
61702;SDS011;47622;47.726;3.298;2022-08-25T03:56:41;4.20;;;3.42;;
61702;SDS011;47622;47.726;3.298;2022-08-25T03:59:08;4.70;;;3.13;;
61702;SDS011;47622;47.726;3.298;2022-08-25T04:01:35;3.30;;;3.00;;
61702;SDS011;47622;47.726;3.298;2022-08-25T04:04:03;3.40;;;3.10;;
61702;SDS011;47622;47.726;3.298;2022-08-25T04:06:30;4.60;;;3.72;;
61702;SDS011;47622;47.726;3.298;2022-08-25T04:08:56;5.07;;;3.38;;
61702;SDS011;47622;47.726;3.298;2022-08-25T04:11:24;4.35;;;3.15;;
61702;SDS011;47622;47.726;3.298;2022-08-25T04:13:52;3.45;;;3.08;;
61702;SDS011;47622;47.726;3.298;2022-08-25T04:16:21;6.10;;;3.40;;
61702;SDS011;47622;47.726;3.298;2022-08-25T04:18:49;3.33;;;3.00;;
61702;SDS011;47622;47.726;3.298;2022-08-25T04:21:17;4.50;;;3.42;;
61702;SDS011;47622;47.726;3.298;2022-08-25T04:23:45;4.65;;;3.33;;
61702;SDS011;47622;47.726;3.298;2022-08-25T04:26:14;3.45;;;3.13;;
61702;SDS011;47622;47.726;3.298;2022-08-25T04:28:44;3.75;;;3.10;;
61702;SDS011;47622;47.726;3.298;2022-08-25T04:31:11;4.90;;;3.80;;
61702;SDS011;47622;47.726;3.298;2022-08-25T04:33:41;4.65;;;3.53;;
61702;SDS011;47622;47.726;3.298;2022-08-25T04:36:08;3.95;;;3.25;;
61702;SDS011;47622;47.726;3.298;2022-08-25T04:38:38;5.07;;;3.40;;
61702;SDS011;47622;47.726;3.298;2022-08-25T04:41:05;4.22;;;3.25;;
61702;SDS011;47622;47.726;3.298;2022-08-25T04:43:34;3.70;;;3.40;;
61702;SDS011;47622;47.726;3.298;2022-08-25T04:46:11;5.07;;;3.47;;
61702;SDS011;47622;47.726;3.298;2022-08-25T04:48:40;6.32;;;3.53;;
61702;SDS011;47622;47.726;3.298;2022-08-25T04:51:07;4.15;;;3.20;;
61702;SDS011;47622;47.726;3.298;2022-08-25T04:53:35;6.68;;;3.50;;
61702;SDS011;47622;47.726;3.298;2022-08-25T04:56:03;5.63;;;3.35;;
61702;SDS011;47622;47.726;3.298;2022-08-25T04:58:30;5.20;;;3.22;;
61702;SDS011;47622;47.726;3.298;2022-08-25T05:01:06;4.38;;;3.58;;
61702;SDS011;47622;47.726;3.298;2022-08-25T05:03:35;4.50;;;3.50;;
61702;SDS011;47622;47.726;3.298;2022-08-25T05:06:02;3.40;;;2.97;;
61702;SDS011;47622;47.726;3.298;2022-08-25T05:08:29;4.72;;;3.03;;
61702;SDS011;47622;47.726;3.298;2022-08-25T05:10:55;4.10;;;3.53;;
61702;SDS011;47622;47.726;3.298;2022-08-25T05:13:22;5.32;;;3.70;;
61702;SDS011;47622;47.726;3.298;2022-08-25T05:15:56;4.25;;;3.33;;
61702;SDS011;47622;47.726;3.298;2022-08-25T05:18:24;4.68;;;3.03;;
61702;SDS011;47622;47.726;3.298;2022-08-25T05:20:53;4.55;;;3.50;;
61702;SDS011;47622;47.726;3.298;2022-08-25T05:23:23;3.40;;;3.10;;
61702;SDS011;47622;47.726;3.298;2022-08-25T05:25:50;4.03;;;3.40;;
61702;SDS011;47622;47.726;3.298;2022-08-25T05:28:17;4.03;;;3.35;;
61702;SDS011;47622;47.726;3.298;2022-08-25T05:30:44;4.43;;;3.08;;
61702;SDS011;47622;47.726;3.298;2022-08-25T05:33:11;4.43;;;3.60;;
61702;SDS011;47622;47.726;3.298;2022-08-25T05:35:37;4.90;;;3.30;;
61702;SDS011;47622;47.726;3.298;2022-08-25T05:38:03;3.40;;;3.10;;
61702;SDS011;47622;47.726;3.298;2022-08-25T05:40:30;3.42;;;3.10;;
61702;SDS011;47622;47.726;3.298;2022-08-25T05:42:56;4.03;;;3.30;;
61702;SDS011;47622;47.726;3.298;2022-08-25T05:45:22;3.60;;;3.30;;
61702;SDS011;47622;47.726;3.298;2022-08-25T05:47:48;3.63;;;3.33;;
61702;SDS011;47622;47.726;3.298;2022-08-25T05:50:15;3.85;;;3.25;;
61702;SDS011;47622;47.726;3.298;2022-08-25T05:52:42;3.95;;;3.25;;
61702;SDS011;47622;47.726;3.298;2022-08-25T05:55:08;5.07;;;3.30;;
61702;SDS011;47622;47.726;3.298;2022-08-25T05:57:36;5.57;;;3.60;;
61702;SDS011;47622;47.726;3.298;2022-08-25T06:00:03;4.57;;;3.10;;
61702;SDS011;47622;47.726;3.298;2022-08-25T06:02:30;3.75;;;3.30;;
61702;SDS011;47622;47.726;3.298;2022-08-25T06:05:06;3.72;;;3.30;;
61702;SDS011;47622;47.726;3.298;2022-08-25T06:07:33;4.28;;;3.28;;
61702;SDS011;47622;47.726;3.298;2022-08-25T06:10:01;4.25;;;3.33;;
61702;SDS011;47622;47.726;3.298;2022-08-25T06:12:32;4.32;;;3.45;;
61702;SDS011;47622;47.726;3.298;2022-08-25T06:15:00;5.40;;;3.50;;
61702;SDS011;47622;47.726;3.298;2022-08-25T06:17:27;6.35;;;3.50;;
61702;SDS011;47622;47.726;3.298;2022-08-25T06:19:53;5.03;;;3.05;;
61702;SDS011;47622;47.726;3.298;2022-08-25T06:22:20;7.25;;;3.20;;
61702;SDS011;47622;47.726;3.298;2022-08-25T06:24:46;4.47;;;3.40;;
61702;SDS011;47622;47.726;3.298;2022-08-25T06:27:12;3.25;;;2.80;;
61702;SDS011;47622;47.726;3.298;2022-08-25T06:29:38;4.53;;;3.20;;
61702;SDS011;47622;47.726;3.298;2022-08-25T06:32:05;3.50;;;3.20;;
61702;SDS011;47622;47.726;3.298;2022-08-25T06:34:31;5.53;;;3.83;;
61702;SDS011;47622;47.726;3.298;2022-08-25T06:41:52;3.50;;;3.20;;
61702;SDS011;47622;47.726;3.298;2022-08-25T06:44:21;3.63;;;3.00;;
61702;SDS011;47622;47.726;3.298;2022-08-25T06:46:48;3.95;;;3.00;;
61702;SDS011;47622;47.726;3.298;2022-08-25T06:49:15;4.22;;;2.97;;
61702;SDS011;47622;47.726;3.298;2022-08-25T06:51:41;4.45;;;2.97;;
61702;SDS011;47622;47.726;3.298;2022-08-25T06:54:08;3.50;;;3.20;;
61702;SDS011;47622;47.726;3.298;2022-08-25T06:56:35;3.50;;;3.20;;
61702;SDS011;47622;47.726;3.298;2022-08-25T06:59:04;3.70;;;3.08;;
61702;SDS011;47622;47.726;3.298;2022-08-25T07:01:32;3.78;;;2.95;;
61702;SDS011;47622;47.726;3.298;2022-08-25T07:04:01;4.05;;;3.22;;
61702;SDS011;47622;47.726;3.298;2022-08-25T07:06:30;6.30;;;2.92;;
61702;SDS011;47622;47.726;3.298;2022-08-25T07:08:57;3.03;;;2.80;;
61702;SDS011;47622;47.726;3.298;2022-08-25T07:11:23;3.00;;;2.65;;
61702;SDS011;47622;47.726;3.298;2022-08-25T07:13:50;2.78;;;2.58;;
61702;SDS011;47622;47.726;3.298;2022-08-25T07:16:17;3.92;;;2.70;;
61702;SDS011;47622;47.726;3.298;2022-08-25T07:18:44;4.47;;;2.72;;
61702;SDS011;47622;47.726;3.298;2022-08-25T07:21:12;3.53;;;3.03;;
61702;SDS011;47622;47.726;3.298;2022-08-25T07:23:39;3.50;;;2.90;;
61702;SDS011;47622;47.726;3.298;2022-08-25T07:26:10;3.42;;;2.72;;
61702;SDS011;47622;47.726;3.298;2022-08-25T07:28:37;3.65;;;2.80;;
61702;SDS011;47622;47.726;3.298;2022-08-25T07:31:03;3.63;;;2.72;;
61702;SDS011;47622;47.726;3.298;2022-08-25T07:33:29;3.63;;;2.60;;
61702;SDS011;47622;47.726;3.298;2022-08-25T07:35:55;3.40;;;2.75;;
61702;SDS011;47622;47.726;3.298;2022-08-25T07:38:37;4.35;;;2.65;;
61702;SDS011;47622;47.726;3.298;2022-08-25T07:41:03;5.13;;;2.70;;
61702;SDS011;47622;47.726;3.298;2022-08-25T07:43:29;2.88;;;2.25;;
61702;SDS011;47622;47.726;3.298;2022-08-25T07:45:55;3.88;;;2.78;;
61702;SDS011;47622;47.726;3.298;2022-08-25T07:48:21;3.78;;;2.22;;
61702;SDS011;47622;47.726;3.298;2022-08-25T07:50:47;4.50;;;2.28;;
61702;SDS011;47622;47.726;3.298;2022-08-25T07:53:14;2.70;;;2.13;;
61702;SDS011;47622;47.726;3.298;2022-08-25T07:55:41;2.45;;;2.13;;
61702;SDS011;47622;47.726;3.298;2022-08-25T07:58:08;2.10;;;1.90;;
61702;SDS011;47622;47.726;3.298;2022-08-25T08:00:36;4.22;;;2.05;;
61702;SDS011;47622;47.726;3.298;2022-08-25T08:05:30;3.80;;;1.88;;
61702;SDS011;47622;47.726;3.298;2022-08-25T08:07:57;4.20;;;1.67;;
61702;SDS011;47622;47.726;3.298;2022-08-25T08:10:24;5.18;;;1.42;;
61702;SDS011;47622;47.726;3.298;2022-08-25T08:17:43;4.13;;;1.48;;
61702;SDS011;47622;47.726;3.298;2022-08-25T08:20:10;1.50;;;1.40;;
61702;SDS011;47622;47.726;3.298;2022-08-25T08:22:37;3.13;;;1.25;;
61702;SDS011;47622;47.726;3.298;2022-08-25T08:25:05;1.92;;;1.20;;
61702;SDS011;47622;47.726;3.298;2022-08-25T08:29:59;5.30;;;1.52;;
61702;SDS011;47622;47.726;3.298;2022-08-25T08:32:25;2.25;;;1.08;;
61702;SDS011;47622;47.726;3.298;2022-08-25T08:34:51;1.60;;;1.10;;
61702;SDS011;47622;47.726;3.298;2022-08-25T08:37:17;1.52;;;0.93;;
61702;SDS011;47622;47.726;3.298;2022-08-25T08:39:44;1.65;;;1.23;;
61702;SDS011;47622;47.726;3.298;2022-08-25T08:45:21;2.03;;;1.38;;
61702;SDS011;47622;47.726;3.298;2022-08-25T08:58:42;1.75;;;1.30;;
61702;SDS011;47622;47.726;3.298;2022-08-25T09:01:18;3.10;;;1.35;;
61702;SDS011;47622;47.726;3.298;2022-08-25T09:03:58;1.92;;;1.20;;
61702;SDS011;47622;47.726;3.298;2022-08-25T09:06:35;2.45;;;0.82;;
61702;SDS011;47622;47.726;3.298;2022-08-25T09:09:05;2.33;;;1.00;;
61702;SDS011;47622;47.726;3.298;2022-08-25T09:20:27;0.80;;;0.77;;
61702;SDS011;47622;47.726;3.298;2022-08-25T09:23:14;3.30;;;1.02;;
61702;SDS011;47622;47.726;3.298;2022-08-25T09:28:30;3.13;;;0.88;;
61702;SDS011;47622;47.726;3.298;2022-08-25T09:33:47;1.63;;;1.10;;
61702;SDS011;47622;47.726;3.298;2022-08-25T09:36:12;0.75;;;0.75;;
61702;SDS011;47622;47.726;3.298;2022-08-25T09:38:39;1.05;;;0.85;;
61702;SDS011;47622;47.726;3.298;2022-08-25T09:41:06;2.20;;;0.90;;
61702;SDS011;47622;47.726;3.298;2022-08-25T09:43:34;1.52;;;1.10;;
61702;SDS011;47622;47.726;3.298;2022-08-25T09:48:41;3.60;;;0.98;;
61702;SDS011;47622;47.726;3.298;2022-08-25T09:51:34;1.25;;;1.00;;
61702;SDS011;47622;47.726;3.298;2022-08-25T09:56:57;2.08;;;1.10;;
61702;SDS011;47622;47.726;3.298;2022-08-25T09:59:32;1.60;;;1.20;;
61702;SDS011;47622;47.726;3.298;2022-08-25T10:02:22;2.95;;;0.93;;
61702;SDS011;47622;47.726;3.298;2022-08-25T10:04:51;1.40;;;1.08;;
61702;SDS011;47622;47.726;3.298;2022-08-25T10:07:20;1.13;;;1.00;;
61702;SDS011;47622;47.726;3.298;2022-08-25T10:09:51;2.53;;;1.10;;
61702;SDS011;47622;47.726;3.298;2022-08-25T10:12:30;1.60;;;1.20;;
61702;SDS011;47622;47.726;3.298;2022-08-25T10:14:56;1.35;;;1.17;;
61702;SDS011;47622;47.726;3.298;2022-08-25T10:17:24;2.13;;;1.35;;
61702;SDS011;47622;47.726;3.298;2022-08-25T10:19:53;1.30;;;1.10;;
61702;SDS011;47622;47.726;3.298;2022-08-25T10:30:38;1.58;;;1.13;;
61702;SDS011;47622;47.726;3.298;2022-08-25T10:33:29;1.20;;;1.10;;
61702;SDS011;47622;47.726;3.298;2022-08-25T10:38:53;1.27;;;1.17;;
61702;SDS011;47622;47.726;3.298;2022-08-25T10:44:32;1.93;;;1.10;;
61702;SDS011;47622;47.726;3.298;2022-08-25T10:50:30;2.28;;;1.27;;
61702;SDS011;47622;47.726;3.298;2022-08-25T10:58:16;1.75;;;1.42;;
61702;SDS011;47622;47.726;3.298;2022-08-25T11:03:33;2.28;;;1.35;;
61702;SDS011;47622;47.726;3.298;2022-08-25T11:06:04;2.38;;;1.30;;
61702;SDS011;47622;47.726;3.298;2022-08-25T11:08:48;3.53;;;1.30;;
61702;SDS011;47622;47.726;3.298;2022-08-25T11:16:40;2.55;;;1.20;;
61702;SDS011;47622;47.726;3.298;2022-08-25T11:27:44;2.50;;;1.50;;
61702;SDS011;47622;47.726;3.298;2022-08-25T11:30:16;3.20;;;1.42;;
61702;SDS011;47622;47.726;3.298;2022-08-25T11:32:43;1.40;;;1.30;;
61702;SDS011;47622;47.726;3.298;2022-08-25T11:35:13;1.92;;;1.10;;
61702;SDS011;47622;47.726;3.298;2022-08-25T11:37:43;3.70;;;1.50;;
61702;SDS011;47622;47.726;3.298;2022-08-25T11:51:27;1.48;;;1.38;;
61702;SDS011;47622;47.726;3.298;2022-08-25T11:56:49;2.38;;;1.10;;
61702;SDS011;47622;47.726;3.298;2022-08-25T12:02:30;2.53;;;1.40;;
61702;SDS011;47622;47.726;3.298;2022-08-25T12:10:13;2.75;;;1.38;;
61702;SDS011;47622;47.726;3.298;2022-08-25T12:18:12;1.65;;;1.20;;
61702;SDS011;47622;47.726;3.298;2022-08-25T12:23:38;1.27;;;1.17;;
61702;SDS011;47622;47.726;3.298;2022-08-25T12:26:18;2.22;;;1.00;;
61702;SDS011;47622;47.726;3.298;2022-08-25T12:31:58;2.92;;;1.50;;
61702;SDS011;47622;47.726;3.298;2022-08-25T12:37:23;1.30;;;1.20;;
61702;SDS011;47622;47.726;3.298;2022-08-25T12:40:01;2.78;;;1.10;;
61702;SDS011;47622;47.726;3.298;2022-08-25T12:42:30;1.90;;;1.38;;
61702;SDS011;47622;47.726;3.298;2022-08-25T12:52:58;2.47;;;1.30;;
61702;SDS011;47622;47.726;3.298;2022-08-25T12:55:36;3.65;;;1.30;;
61702;SDS011;47622;47.726;3.298;2022-08-25T12:58:04;1.50;;;1.40;;
61702;SDS011;47622;47.726;3.298;2022-08-25T13:00:33;1.63;;;1.50;;
61702;SDS011;47622;47.726;3.298;2022-08-25T13:06:00;3.97;;;1.70;;
61702;SDS011;47622;47.726;3.298;2022-08-25T13:11:37;2.55;;;1.30;;
61702;SDS011;47622;47.726;3.298;2022-08-25T13:17:08;3.92;;;1.38;;
61702;SDS011;47622;47.726;3.298;2022-08-25T13:19:34;1.70;;;1.20;;
61702;SDS011;47622;47.726;3.298;2022-08-25T13:22:02;2.60;;;1.40;;
61702;SDS011;47622;47.726;3.298;2022-08-25T13:24:38;2.28;;;1.50;;
61702;SDS011;47622;47.726;3.298;2022-08-25T13:27:07;2.25;;;1.33;;
61702;SDS011;47622;47.726;3.298;2022-08-25T13:29:50;1.60;;;1.23;;
61702;SDS011;47622;47.726;3.298;2022-08-25T13:32:24;1.60;;;1.33;;
61702;SDS011;47622;47.726;3.298;2022-08-25T13:34:54;2.22;;;1.30;;
61702;SDS011;47622;47.726;3.298;2022-08-25T13:37:43;1.27;;;1.17;;
61702;SDS011;47622;47.726;3.298;2022-08-25T13:43:05;1.48;;;1.38;;
61702;SDS011;47622;47.726;3.298;2022-08-25T13:45:37;3.30;;;1.35;;
61702;SDS011;47622;47.726;3.298;2022-08-25T13:48:10;3.45;;;1.50;;
61702;SDS011;47622;47.726;3.298;2022-08-25T13:50:38;1.45;;;1.35;;
61702;SDS011;47622;47.726;3.298;2022-08-25T13:53:13;4.35;;;1.42;;
61702;SDS011;47622;47.726;3.298;2022-08-25T13:58:23;3.05;;;1.30;;
61702;SDS011;47622;47.726;3.298;2022-08-25T14:01:02;2.08;;;1.27;;
61702;SDS011;47622;47.726;3.298;2022-08-25T14:03:38;2.78;;;1.38;;
61702;SDS011;47622;47.726;3.298;2022-08-25T14:06:18;1.92;;;1.52;;
61702;SDS011;47622;47.726;3.298;2022-08-25T14:08:47;4.45;;;1.55;;
61702;SDS011;47622;47.726;3.298;2022-08-25T14:11:22;1.67;;;1.50;;
61702;SDS011;47622;47.726;3.298;2022-08-25T14:13:58;2.30;;;1.50;;
61702;SDS011;47622;47.726;3.298;2022-08-25T14:18:53;6.03;;;1.50;;
61702;SDS011;47622;47.726;3.298;2022-08-25T14:21:24;1.70;;;1.30;;
61702;SDS011;47622;47.726;3.298;2022-08-25T14:23:52;1.40;;;1.30;;
61702;SDS011;47622;47.726;3.298;2022-08-25T14:26:19;1.50;;;1.30;;
61702;SDS011;47622;47.726;3.298;2022-08-25T14:28:45;4.32;;;1.20;;
61702;SDS011;47622;47.726;3.298;2022-08-25T14:31:12;2.83;;;1.60;;
61702;SDS011;47622;47.726;3.298;2022-08-25T14:33:52;2.20;;;1.30;;
61702;SDS011;47622;47.726;3.298;2022-08-25T14:36:24;2.53;;;1.60;;
61702;SDS011;47622;47.726;3.298;2022-08-25T14:38:50;3.65;;;1.65;;
61702;SDS011;47622;47.726;3.298;2022-08-25T14:41:18;3.50;;;1.88;;
61702;SDS011;47622;47.726;3.298;2022-08-25T14:43:44;3.58;;;1.60;;
61702;SDS011;47622;47.726;3.298;2022-08-25T14:46:19;2.42;;;1.90;;
61702;SDS011;47622;47.726;3.298;2022-08-25T14:48:51;3.22;;;1.73;;
61702;SDS011;47622;47.726;3.298;2022-08-25T14:51:21;5.50;;;1.60;;
61702;SDS011;47622;47.726;3.298;2022-08-25T14:53:48;1.98;;;1.75;;
61702;SDS011;47622;47.726;3.298;2022-08-25T14:56:14;3.75;;;1.58;;
61702;SDS011;47622;47.726;3.298;2022-08-25T14:58:41;1.88;;;1.55;;
61702;SDS011;47622;47.726;3.298;2022-08-25T15:01:07;1.70;;;1.60;;
61702;SDS011;47622;47.726;3.298;2022-08-25T15:03:38;1.83;;;1.60;;
61702;SDS011;47622;47.726;3.298;2022-08-25T15:06:07;1.80;;;1.20;;
61702;SDS011;47622;47.726;3.298;2022-08-25T15:08:36;2.53;;;1.50;;
61702;SDS011;47622;47.726;3.298;2022-08-25T15:11:21;3.13;;;1.83;;
61702;SDS011;47622;47.726;3.298;2022-08-25T15:13:47;2.80;;;1.60;;
61702;SDS011;47622;47.726;3.298;2022-08-25T15:16:34;2.35;;;1.50;;
61702;SDS011;47622;47.726;3.298;2022-08-25T15:19:01;3.70;;;1.70;;
61702;SDS011;47622;47.726;3.298;2022-08-25T15:21:29;2.90;;;1.77;;
61702;SDS011;47622;47.726;3.298;2022-08-25T15:23:55;4.03;;;1.70;;
61702;SDS011;47622;47.726;3.298;2022-08-25T15:26:21;2.85;;;1.92;;
61702;SDS011;47622;47.726;3.298;2022-08-25T15:28:48;1.70;;;1.60;;
61702;SDS011;47622;47.726;3.298;2022-08-25T15:31:15;4.80;;;1.90;;
61702;SDS011;47622;47.726;3.298;2022-08-25T15:33:42;2.83;;;1.80;;
61702;SDS011;47622;47.726;3.298;2022-08-25T15:36:09;3.92;;;1.85;;
61702;SDS011;47622;47.726;3.298;2022-08-25T15:38:38;1.83;;;1.65;;
61702;SDS011;47622;47.726;3.298;2022-08-25T15:41:06;1.80;;;1.65;;
61702;SDS011;47622;47.726;3.298;2022-08-25T15:43:33;3.22;;;1.70;;
61702;SDS011;47622;47.726;3.298;2022-08-25T15:45:59;3.95;;;1.92;;
61702;SDS011;47622;47.726;3.298;2022-08-25T15:48:26;5.97;;;1.92;;
61702;SDS011;47622;47.726;3.298;2022-08-25T15:50:52;3.90;;;1.75;;
61702;SDS011;47622;47.726;3.298;2022-08-25T15:53:22;4.80;;;1.70;;
61702;SDS011;47622;47.726;3.298;2022-08-25T15:55:50;2.45;;;1.95;;
61702;SDS011;47622;47.726;3.298;2022-08-25T15:58:16;1.70;;;1.60;;
61702;SDS011;47622;47.726;3.298;2022-08-25T16:00:42;4.80;;;1.73;;
61702;SDS011;47622;47.726;3.298;2022-08-25T16:03:09;2.70;;;1.63;;
61702;SDS011;47622;47.726;3.298;2022-08-25T16:05:40;3.83;;;1.80;;
61702;SDS011;47622;47.726;3.298;2022-08-25T16:08:07;3.22;;;1.60;;
61702;SDS011;47622;47.726;3.298;2022-08-25T16:10:34;2.05;;;1.63;;
61702;SDS011;47622;47.726;3.298;2022-08-25T16:13:02;5.13;;;1.60;;
61702;SDS011;47622;47.726;3.298;2022-08-25T16:15:28;2.35;;;1.73;;
61702;SDS011;47622;47.726;3.298;2022-08-25T16:17:54;2.85;;;1.70;;
61702;SDS011;47622;47.726;3.298;2022-08-25T16:20:21;3.17;;;1.80;;
61702;SDS011;47622;47.726;3.298;2022-08-25T16:22:48;3.25;;;1.80;;
61702;SDS011;47622;47.726;3.298;2022-08-25T16:25:14;3.75;;;1.85;;
61702;SDS011;47622;47.726;3.298;2022-08-25T16:27:40;5.13;;;1.85;;
61702;SDS011;47622;47.726;3.298;2022-08-25T16:30:06;2.67;;;1.88;;
61702;SDS011;47622;47.726;3.298;2022-08-25T16:32:33;2.47;;;1.77;;
61702;SDS011;47622;47.726;3.298;2022-08-25T16:34:59;1.80;;;1.70;;
61702;SDS011;47622;47.726;3.298;2022-08-25T16:37:25;2.50;;;1.55;;
61702;SDS011;47622;47.726;3.298;2022-08-25T16:39:51;3.15;;;1.80;;
61702;SDS011;47622;47.726;3.298;2022-08-25T16:42:18;2.20;;;1.75;;
61702;SDS011;47622;47.726;3.298;2022-08-25T16:44:44;3.30;;;1.70;;
61702;SDS011;47622;47.726;3.298;2022-08-25T16:47:10;3.00;;;1.80;;
61702;SDS011;47622;47.726;3.298;2022-08-25T16:49:38;2.55;;;1.42;;
61702;SDS011;47622;47.726;3.298;2022-08-25T16:52:04;2.60;;;1.63;;
61702;SDS011;47622;47.726;3.298;2022-08-25T16:54:51;4.82;;;2.00;;
61702;SDS011;47622;47.726;3.298;2022-08-25T16:57:35;3.53;;;1.60;;
61702;SDS011;47622;47.726;3.298;2022-08-25T17:00:02;1.73;;;1.60;;
61702;SDS011;47622;47.726;3.298;2022-08-25T17:02:33;5.15;;;1.88;;
61702;SDS011;47622;47.726;3.298;2022-08-25T17:04:59;3.58;;;2.08;;
61702;SDS011;47622;47.726;3.298;2022-08-25T17:07:25;4.80;;;1.80;;
61702;SDS011;47622;47.726;3.298;2022-08-25T17:09:51;5.05;;;2.00;;
61702;SDS011;47622;47.726;3.298;2022-08-25T17:12:17;5.72;;;1.90;;
61702;SDS011;47622;47.726;3.298;2022-08-25T17:14:44;2.78;;;1.77;;
61702;SDS011;47622;47.726;3.298;2022-08-25T17:17:11;2.80;;;1.80;;
61702;SDS011;47622;47.726;3.298;2022-08-25T17:19:37;4.53;;;1.67;;
61702;SDS011;47622;47.726;3.298;2022-08-25T17:22:05;5.18;;;1.70;;
61702;SDS011;47622;47.726;3.298;2022-08-25T17:24:31;2.75;;;2.00;;
61702;SDS011;47622;47.726;3.298;2022-08-25T17:26:58;3.85;;;2.13;;
61702;SDS011;47622;47.726;3.298;2022-08-25T17:29:25;2.47;;;1.63;;
61702;SDS011;47622;47.726;3.298;2022-08-25T17:31:51;2.15;;;1.67;;
61702;SDS011;47622;47.726;3.298;2022-08-25T17:34:17;5.95;;;1.88;;
61702;SDS011;47622;47.726;3.298;2022-08-25T17:36:45;3.40;;;1.70;;
61702;SDS011;47622;47.726;3.298;2022-08-25T17:39:11;2.38;;;2.05;;
61702;SDS011;47622;47.726;3.298;2022-08-25T17:41:38;1.58;;;1.48;;
61702;SDS011;47622;47.726;3.298;2022-08-25T17:44:05;2.60;;;1.90;;
61702;SDS011;47622;47.726;3.298;2022-08-25T17:46:31;3.50;;;1.90;;
61702;SDS011;47622;47.726;3.298;2022-08-25T17:48:57;2.65;;;1.88;;
61702;SDS011;47622;47.726;3.298;2022-08-25T17:51:23;4.70;;;2.00;;
61702;SDS011;47622;47.726;3.298;2022-08-25T17:53:49;2.40;;;1.95;;
61702;SDS011;47622;47.726;3.298;2022-08-25T17:56:17;2.95;;;1.77;;
61702;SDS011;47622;47.726;3.298;2022-08-25T17:58:45;5.00;;;2.20;;